PWSweather.com
Personal Weather Stations
Station Observations
KNVELKO7
Elko, NV 89801

Elko, NV 89801

Lat: 40.963233, Lon: -115.592836

Elevation: 5230

Station Type: WS-2812

Latest ConditionsUpdated 7:50:39 PM PDT Monday, Sep 15, 2014
Currently Today's Max Today's Min Today's Average
Temperature 73.3°F22.9°C 92.0°F33.3°C 43.6°F6.4°C 68.1°F20.1°C
Dew Point 28.3°F-2.1°C 46.5°F8.1°C 23.3°F-4.8°C 33.1°F0.6°C
Winds 1.1 mph NNE1.8 kmh NNE 12.1 mph WSW19.5 kmh WSW - 2.7 mph 4.3 kmh
Wind Gusts 2.5 mph4.0 kmh 17.2 mph27.7 kmh - -
Humidity 19% 51% 15% 31%
Pressure 30.08 in1018.6 mb 30.16 in1021.3 mb 30.06 in1017.9 mb -
Hour Temp Dew Point Humidity Winds Wind Gusts Pressure Precip Precip Rate Daily Precip Total
07:50 PM 73.3°F22.9°C 28.3°F-2.1°C 19% 1.1 mph NNE1.8 kmh NNE 2.5 mph4.0 kmh 30.08 in1018.6 mb 0.00 in0.0 mm 0.00 in/hr0.0 mm/hr 0.00 in0.0 mm
07:45 PM 74.0°F23.3°C 28.9°F-1.7°C 19% 2.0 mph 3.2 kmh 2.5 mph4.0 kmh 30.07 in1018.3 mb 0.00 in0.0 mm 0.00 in/hr0.0 mm/hr 0.00 in0.0 mm
07:40 PM 74.5°F23.6°C 29.3°F-1.5°C 19% 0.2 mph NE0.3 kmh NE 2.5 mph4.0 kmh 30.07 in1018.3 mb 0.00 in0.0 mm 0.00 in/hr0.0 mm/hr 0.00 in0.0 mm
07:35 PM 75.6°F24.2°C 30.2°F-1.0°C 19% 0.6 mph ENE1.0 kmh ENE 2.5 mph4.0 kmh 30.07 in1018.3 mb 0.00 in0.0 mm 0.00 in/hr0.0 mm/hr 0.00 in0.0 mm
07:30 PM 76.5°F24.7°C 29.2°F-1.6°C 18% 1.8 mph NNE2.9 kmh NNE 2.5 mph4.0 kmh 30.07 in1018.3 mb 0.00 in0.0 mm 0.00 in/hr0.0 mm/hr 0.00 in0.0 mm
07:25 PM 76.7°F24.8°C 29.3°F-1.5°C 18% 1.0 mph NNW1.6 kmh NNW 3.4 mph5.5 kmh 30.07 in1018.3 mb 0.00 in0.0 mm 0.00 in/hr0.0 mm/hr 0.00 in0.0 mm
07:20 PM 77.2°F25.1°C 29.8°F-1.2°C 18% 0.4 mph E0.6 kmh E 3.4 mph5.5 kmh 30.07 in1018.3 mb 0.00 in0.0 mm 0.00 in/hr0.0 mm/hr 0.00 in0.0 mm
07:15 PM 78.5°F25.8°C 30.8°F-0.7°C 18% 1.6 mph E2.6 kmh E 1.8 mph2.9 kmh 30.07 in1018.3 mb 0.00 in0.0 mm 0.00 in/hr0.0 mm/hr 0.00 in0.0 mm
07:10 PM 79.2°F26.2°C 29.7°F-1.3°C 17% 0.7 mph ENE1.1 kmh ENE 0.9 mph1.4 kmh 30.06 in1017.9 mb 0.00 in0.0 mm 0.00 in/hr0.0 mm/hr 0.00 in0.0 mm
07:05 PM 80.1°F26.7°C 30.4°F-0.9°C 17% 0.9 mph ENE1.4 kmh ENE 2.5 mph4.0 kmh 30.07 in1018.3 mb 0.00 in0.0 mm 0.00 in/hr0.0 mm/hr 0.00 in0.0 mm
07:00 PM 81.0°F27.2°C 31.2°F-0.4°C 17% 0.2 mph SSW0.3 kmh SSW 2.5 mph4.0 kmh 30.06 in1017.9 mb 0.00 in0.0 mm 0.00 in/hr0.0 mm/hr 0.00 in0.0 mm
06:54 PM 82.1°F27.8°C 30.4°F-0.9°C 16% 0.6 mph NNW1.0 kmh NNW 2.0 mph3.2 kmh 30.06 in1017.9 mb 0.00 in0.0 mm 0.00 in/hr0.0 mm/hr 0.00 in0.0 mm
06:49 PM 83.2°F28.4°C 31.2°F-0.4°C 16% 0.4 mph NNW0.6 kmh NNW 1.8 mph2.9 kmh 30.06 in1017.9 mb 0.00 in0.0 mm 0.00 in/hr0.0 mm/hr 0.00 in0.0 mm
06:44 PM 84.4°F29.1°C 32.2°F0.1°C 16% 0.7 mph NNW1.1 kmh NNW 0.9 mph1.4 kmh 30.07 in1018.3 mb 0.00 in0.0 mm 0.00 in/hr0.0 mm/hr 0.00 in0.0 mm
06:40 PM 85.1°F29.5°C 32.8°F0.4°C 16% 0.6 mph NNW1.0 kmh NNW 0.9 mph1.4 kmh 30.06 in1017.9 mb 0.00 in0.0 mm 0.00 in/hr0.0 mm/hr 0.00 in0.0 mm
06:35 PM 85.7°F29.8°C 31.5°F-0.3°C 15% Calm Calm -- 30.06 in1017.9 mb 0.00 in0.0 mm 0.00 in/hr0.0 mm/hr 0.00 in0.0 mm
06:30 PM 86.2°F30.1°C 32.0°F0.0°C 15% Calm Calm -- 30.06 in1017.9 mb 0.00 in0.0 mm 0.00 in/hr0.0 mm/hr 0.00 in0.0 mm
06:25 PM 86.6°F30.3°C 32.2°F0.1°C 15% Calm Calm -- 30.07 in1018.3 mb 0.00 in0.0 mm 0.00 in/hr0.0 mm/hr 0.00 in0.0 mm
06:20 PM 86.9°F30.5°C 32.6°F0.3°C 15% Calm Calm 0.9 mph1.4 kmh 30.07 in1018.3 mb 0.00 in0.0 mm 0.00 in/hr0.0 mm/hr 0.00 in0.0 mm
06:15 PM 87.3°F30.7°C 32.9°F0.5°C 15% Calm Calm 0.9 mph1.4 kmh 30.07 in1018.3 mb 0.00 in0.0 mm 0.00 in/hr0.0 mm/hr 0.00 in0.0 mm
06:10 PM 87.5°F30.8°C 33.0°F0.6°C 15% 0.7 mph NNW1.1 kmh NNW 0.9 mph1.4 kmh 30.06 in1017.9 mb 0.00 in0.0 mm 0.00 in/hr0.0 mm/hr 0.00 in0.0 mm
06:05 PM 87.7°F30.9°C 33.1°F0.6°C 15% 0.9 mph NNW1.4 kmh NNW 2.5 mph4.0 kmh 30.06 in1017.9 mb 0.00 in0.0 mm 0.00 in/hr0.0 mm/hr 0.00 in0.0 mm
06:00 PM 87.8°F31.0°C 33.3°F0.7°C 15% 1.1 mph NW1.8 kmh NW 2.5 mph4.0 kmh 30.07 in1018.3 mb 0.00 in0.0 mm 0.00 in/hr0.0 mm/hr 0.00 in0.0 mm
05:54 PM 88.2°F31.2°C 33.6°F0.9°C 15% 1.1 mph NW1.8 kmh NW 5.4 mph8.7 kmh 30.07 in1018.3 mb 0.00 in0.0 mm 0.00 in/hr0.0 mm/hr 0.00 in0.0 mm
05:49 PM 88.7°F31.5°C 34.0°F1.1°C 15% 2.5 mph NW4.0 kmh NW 5.4 mph8.7 kmh 30.07 in1018.3 mb 0.00 in0.0 mm 0.00 in/hr0.0 mm/hr 0.00 in0.0 mm
05:44 PM 89.5°F31.9°C 36.3°F2.4°C 16% 4.7 mph S7.6 kmh S 5.4 mph8.7 kmh 30.07 in1018.3 mb 0.00 in0.0 mm 0.00 in/hr0.0 mm/hr 0.00 in0.0 mm
05:39 PM 89.6°F32.0°C 36.4°F2.4°C 16% 3.7 mph SSE6.0 kmh SSE 4.0 mph6.4 kmh 30.07 in1018.3 mb 0.00 in0.0 mm 0.00 in/hr0.0 mm/hr 0.00 in0.0 mm
05:34 PM 89.6°F32.0°C 38.2°F3.4°C 17% 2.9 mph SE4.7 kmh SE 5.6 mph9.0 kmh 30.07 in1018.3 mb 0.00 in0.0 mm 0.00 in/hr0.0 mm/hr 0.00 in0.0 mm
05:29 PM 89.6°F32.0°C 36.4°F2.4°C 16% 1.6 mph SSE2.6 kmh SSE 6.9 mph11.1 kmh 30.07 in1018.3 mb 0.00 in0.0 mm 0.00 in/hr0.0 mm/hr 0.00 in0.0 mm
05:24 PM 89.6°F32.0°C 36.4°F2.4°C 16% 3.9 mph SSW6.3 kmh SSW 6.9 mph11.1 kmh 30.07 in1018.3 mb 0.00 in0.0 mm 0.00 in/hr0.0 mm/hr 0.00 in0.0 mm
05:19 PM 89.5°F31.9°C 36.3°F2.4°C 16% 1.8 mph SSW2.9 kmh SSW 6.7 mph10.8 kmh 30.07 in1018.3 mb 0.00 in0.0 mm 0.00 in/hr0.0 mm/hr 0.00 in0.0 mm
05:14 PM 89.5°F31.9°C 36.3°F2.4°C 16% 4.7 mph WSW7.6 kmh WSW 6.7 mph10.8 kmh 30.07 in1018.3 mb 0.00 in0.0 mm 0.00 in/hr0.0 mm/hr 0.00 in0.0 mm
05:09 PM 90.2°F32.3°C 35.1°F1.7°C 15% 6.3 mph WSW10.1 kmh WSW 6.5 mph10.5 kmh 30.07 in1018.3 mb 0.00 in0.0 mm 0.00 in/hr0.0 mm/hr 0.00 in0.0 mm
05:04 PM 90.4°F32.4°C 37.0°F2.8°C 16% 1.5 mph NNW2.4 kmh NNW 4.7 mph7.6 kmh 30.07 in1018.3 mb 0.00 in0.0 mm 0.00 in/hr0.0 mm/hr 0.00 in0.0 mm
05:00 PM 90.2°F32.3°C 38.6°F3.7°C 17% 3.4 mph S5.5 kmh S 4.7 mph7.6 kmh 30.07 in1018.3 mb 0.00 in0.0 mm 0.00 in/hr0.0 mm/hr 0.00 in0.0 mm
04:54 PM 89.8°F32.1°C 36.5°F2.5°C 16% 2.7 mph WSW4.3 kmh WSW 3.8 mph6.1 kmh 30.07 in1018.3 mb 0.00 in0.0 mm 0.00 in/hr0.0 mm/hr 0.00 in0.0 mm
04:49 PM 89.3°F31.8°C 36.1°F2.3°C 16% 2.0 mph SW3.2 kmh SW 6.3 mph10.1 kmh 30.07 in1018.3 mb 0.00 in0.0 mm 0.00 in/hr0.0 mm/hr 0.00 in0.0 mm
04:44 PM 88.7°F31.5°C 35.7°F2.1°C 16% 1.6 mph WSW2.6 kmh WSW 9.4 mph15.1 kmh 30.08 in1018.6 mb 0.00 in0.0 mm 0.00 in/hr0.0 mm/hr 0.00 in0.0 mm
04:39 PM 88.6°F31.4°C 35.6°F2.0°C 16% 3.5 mph WSW5.6 kmh WSW 9.4 mph15.1 kmh 30.08 in1018.6 mb 0.00 in0.0 mm 0.00 in/hr0.0 mm/hr 0.00 in0.0 mm
04:34 PM 88.7°F31.5°C 35.7°F2.1°C 16% 6.7 mph SW10.8 kmh SW 10.3 mph16.6 kmh 30.08 in1018.6 mb 0.00 in0.0 mm 0.00 in/hr0.0 mm/hr 0.00 in0.0 mm
04:29 PM 89.1°F31.7°C 36.0°F2.2°C 16% 9.3 mph SW15.0 kmh SW 11.9 mph19.2 kmh 30.08 in1018.6 mb 0.00 in0.0 mm 0.00 in/hr0.0 mm/hr 0.00 in0.0 mm
04:24 PM 89.3°F31.8°C 36.1°F2.3°C 16% 5.3 mph SW8.5 kmh SW 11.9 mph19.2 kmh 30.08 in1018.6 mb 0.00 in0.0 mm 0.00 in/hr0.0 mm/hr 0.00 in0.0 mm
04:19 PM 89.8°F32.1°C 36.5°F2.5°C 16% 6.3 mph SW10.1 kmh SW 11.4 mph18.3 kmh 30.08 in1018.6 mb 0.00 in0.0 mm 0.00 in/hr0.0 mm/hr 0.00 in0.0 mm
04:14 PM 90.0°F32.2°C 36.7°F2.6°C 16% 9.8 mph SSW15.8 kmh SSW 12.5 mph20.1 kmh 30.08 in1018.6 mb 0.00 in0.0 mm 0.00 in/hr0.0 mm/hr 0.00 in0.0 mm
04:09 PM 90.5°F32.5°C 37.1°F2.8°C 16% 11.1 mph SW17.9 kmh SW 12.5 mph20.1 kmh 30.08 in1018.6 mb 0.00 in0.0 mm 0.00 in/hr0.0 mm/hr 0.00 in0.0 mm
04:04 PM 90.5°F32.5°C 37.1°F2.8°C 16% 3.7 mph NW6.0 kmh NW 6.5 mph10.5 kmh 30.08 in1018.6 mb 0.00 in0.0 mm 0.00 in/hr0.0 mm/hr 0.00 in0.0 mm
03:58 PM 90.0°F32.2°C 38.4°F3.6°C 17% 3.5 mph SE5.6 kmh SE 13.0 mph20.9 kmh 30.08 in1018.6 mb 0.00 in0.0 mm 0.00 in/hr0.0 mm/hr 0.00 in0.0 mm
03:54 PM 89.8°F32.1°C 38.3°F3.5°C 17% 8.9 mph SW14.3 kmh SW 13.0 mph20.9 kmh 30.08 in1018.6 mb 0.00 in0.0 mm 0.00 in/hr0.0 mm/hr 0.00 in0.0 mm
03:49 PM 90.0°F32.2°C 36.7°F2.6°C 16% 7.5 mph WSW12.1 kmh WSW 11.4 mph18.3 kmh 30.08 in1018.6 mb 0.00 in0.0 mm 0.00 in/hr0.0 mm/hr 0.00 in0.0 mm
03:44 PM 90.0°F32.2°C 38.4°F3.6°C 17% 9.6 mph S15.4 kmh S 11.4 mph18.3 kmh 30.08 in1018.6 mb 0.00 in0.0 mm 0.00 in/hr0.0 mm/hr 0.00 in0.0 mm
03:39 PM 89.5°F31.9°C 36.3°F2.4°C 16% 7.8 mph SW12.6 kmh SW 11.9 mph19.2 kmh 30.08 in1018.6 mb 0.00 in0.0 mm 0.00 in/hr0.0 mm/hr 0.00 in0.0 mm
03:34 PM 89.6°F32.0°C 36.4°F2.4°C 16% 10.7 mph WSW17.2 kmh WSW 13.4 mph21.6 kmh 30.08 in1018.6 mb 0.00 in0.0 mm 0.00 in/hr0.0 mm/hr 0.00 in0.0 mm
03:29 PM 90.0°F32.2°C 36.7°F2.6°C 16% 9.1 mph SW14.6 kmh SW 13.4 mph21.6 kmh 30.09 in1019.0 mb 0.00 in0.0 mm 0.00 in/hr0.0 mm/hr 0.00 in0.0 mm
03:24 PM 89.6°F32.0°C 36.4°F2.4°C 16% 3.8 mph W6.1 kmh W 13.2 mph21.2 kmh 30.09 in1019.0 mb 0.00 in0.0 mm 0.00 in/hr0.0 mm/hr 0.00 in0.0 mm
03:19 PM 89.5°F31.9°C 38.0°F3.3°C 17% 9.1 mph WSW14.6 kmh WSW 14.8 mph23.8 kmh 30.09 in1019.0 mb 0.00 in0.0 mm 0.00 in/hr0.0 mm/hr 0.00 in0.0 mm
03:14 PM 90.0°F32.2°C 36.7°F2.6°C 16% 11.2 mph SW18.0 kmh SW 14.8 mph23.8 kmh 30.09 in1019.0 mb 0.00 in0.0 mm 0.00 in/hr0.0 mm/hr 0.00 in0.0 mm
03:09 PM 90.2°F32.3°C 38.6°F3.7°C 17% 5.9 mph SW9.5 kmh SW 17.2 mph27.7 kmh 30.09 in1019.0 mb 0.00 in0.0 mm 0.00 in/hr0.0 mm/hr 0.00 in0.0 mm
03:04 PM 90.4°F32.4°C 38.7°F3.7°C 17% 9.1 mph SW14.6 kmh SW 17.2 mph27.7 kmh 30.09 in1019.0 mb 0.00 in0.0 mm 0.00 in/hr0.0 mm/hr 0.00 in0.0 mm
02:58 PM 91.3°F32.9°C 39.4°F4.1°C 17% 10.9 mph SW17.5 kmh SW 12.3 mph19.8 kmh 30.09 in1019.0 mb 0.00 in0.0 mm 0.00 in/hr0.0 mm/hr 0.00 in0.0 mm
02:53 PM 91.6°F33.1°C 41.5°F5.3°C 18% 6.9 mph SW11.1 kmh SW 11.2 mph18.0 kmh 30.09 in1019.0 mb 0.00 in0.0 mm 0.00 in/hr0.0 mm/hr 0.00 in0.0 mm
02:48 PM 91.3°F32.9°C 41.2°F5.1°C 18% 7.9 mph SSE12.7 kmh SSE 16.1 mph25.9 kmh 30.09 in1019.0 mb 0.00 in0.0 mm 0.00 in/hr0.0 mm/hr 0.00 in0.0 mm
02:43 PM 91.1°F32.8°C 41.0°F5.0°C 18% 8.1 mph SW13.0 kmh SW 16.1 mph25.9 kmh 30.09 in1019.0 mb 0.00 in0.0 mm 0.00 in/hr0.0 mm/hr 0.00 in0.0 mm
02:38 PM 91.1°F32.8°C 41.0°F5.0°C 18% 10.9 mph SW17.5 kmh SW 13.9 mph22.4 kmh 30.09 in1019.0 mb 0.00 in0.0 mm 0.00 in/hr0.0 mm/hr 0.00 in0.0 mm
02:33 PM 90.5°F32.5°C 40.6°F4.8°C 18% 12.1 mph SW19.5 kmh SW 13.9 mph22.4 kmh 30.09 in1019.0 mb 0.00 in0.0 mm 0.00 in/hr0.0 mm/hr 0.00 in0.0 mm
02:28 PM 90.0°F32.2°C 40.1°F4.5°C 18% 6.2 mph SW10.0 kmh SW 12.8 mph20.6 kmh 30.09 in1019.0 mb 0.00 in0.0 mm 0.00 in/hr0.0 mm/hr 0.00 in0.0 mm
02:24 PM 89.6°F32.0°C 38.2°F3.4°C 17% 8.8 mph SSW14.2 kmh SSW 14.8 mph23.8 kmh 30.10 in1019.3 mb 0.00 in0.0 mm 0.00 in/hr0.0 mm/hr 0.00 in0.0 mm
02:19 PM 90.2°F32.3°C 35.1°F1.7°C 15% 12.1 mph WSW19.5 kmh WSW 14.8 mph23.8 kmh 30.09 in1019.0 mb 0.00 in0.0 mm 0.00 in/hr0.0 mm/hr 0.00 in0.0 mm
02:14 PM 91.1°F32.8°C 35.8°F2.1°C 15% 9.0 mph WSW14.5 kmh WSW 9.4 mph15.1 kmh 30.09 in1019.0 mb 0.00 in0.0 mm 0.00 in/hr0.0 mm/hr 0.00 in0.0 mm
02:09 PM 91.4°F33.0°C 36.1°F2.3°C 15% 4.0 mph N6.4 kmh N 6.3 mph10.1 kmh 30.10 in1019.3 mb 0.00 in0.0 mm 0.00 in/hr0.0 mm/hr 0.00 in0.0 mm
02:04 PM 92.0°F33.3°C 40.0°F4.4°C 17% 3.4 mph WSW5.5 kmh WSW 7.6 mph12.2 kmh 30.10 in1019.3 mb 0.00 in0.0 mm 0.00 in/hr0.0 mm/hr 0.00 in0.0 mm
01:58 PM 91.6°F33.1°C 38.0°F3.3°C 16% 4.7 mph NE7.6 kmh NE 7.6 mph12.2 kmh 30.10 in1019.3 mb 0.00 in0.0 mm 0.00 in/hr0.0 mm/hr 0.00 in0.0 mm
01:53 PM 91.8°F33.2°C 39.9°F4.4°C 17% 1.8 mph E2.9 kmh E 6.5 mph10.5 kmh 30.10 in1019.3 mb 0.00 in0.0 mm 0.00 in/hr0.0 mm/hr 0.00 in0.0 mm
01:48 PM 91.6°F33.1°C 39.7°F4.3°C 17% 5.8 mph ENE9.3 kmh ENE 6.5 mph10.5 kmh 30.11 in1019.6 mb 0.00 in0.0 mm 0.00 in/hr0.0 mm/hr 0.00 in0.0 mm
01:43 PM 90.9°F32.7°C 40.9°F4.9°C 18% 4.3 mph NE6.9 kmh NE 10.5 mph16.9 kmh 30.11 in1019.6 mb 0.00 in0.0 mm 0.00 in/hr0.0 mm/hr 0.00 in0.0 mm
01:38 PM 90.5°F32.5°C 37.1°F2.8°C 16% 2.0 mph W3.2 kmh W 10.5 mph16.9 kmh 30.11 in1019.6 mb 0.00 in0.0 mm 0.00 in/hr0.0 mm/hr 0.00 in0.0 mm
01:33 PM 91.1°F32.8°C 41.0°F5.0°C 18% 2.1 mph WSW3.4 kmh WSW 5.4 mph8.7 kmh 30.11 in1019.6 mb 0.00 in0.0 mm 0.00 in/hr0.0 mm/hr 0.00 in0.0 mm
01:28 PM 90.7°F32.6°C 40.8°F4.9°C 18% 3.2 mph SSW5.1 kmh SSW 5.4 mph8.7 kmh 30.12 in1020.0 mb 0.00 in0.0 mm 0.00 in/hr0.0 mm/hr 0.00 in0.0 mm
01:23 PM 91.1°F32.8°C 39.3°F4.1°C 17% 3.3 mph WSW5.3 kmh WSW 12.5 mph20.1 kmh 30.12 in1020.0 mb 0.00 in0.0 mm 0.00 in/hr0.0 mm/hr 0.00 in0.0 mm
01:18 PM 91.1°F32.8°C 41.0°F5.0°C 18% 0.4 mph SW0.6 kmh SW 12.5 mph20.1 kmh 30.12 in1020.0 mb 0.00 in0.0 mm 0.00 in/hr0.0 mm/hr 0.00 in0.0 mm
01:13 PM 91.8°F33.2°C 43.4°F6.3°C 19% 3.0 mph SSE4.8 kmh SSE 6.0 mph9.7 kmh 30.12 in1020.0 mb 0.00 in0.0 mm 0.00 in/hr0.0 mm/hr 0.00 in0.0 mm
01:08 PM 91.4°F33.0°C 44.8°F7.1°C 20% 3.3 mph ESE5.3 kmh ESE 6.5 mph10.5 kmh 30.12 in1020.0 mb 0.00 in0.0 mm 0.00 in/hr0.0 mm/hr 0.00 in0.0 mm
01:03 PM 90.9°F32.7°C 42.7°F5.9°C 19% 3.4 mph S5.5 kmh S 8.3 mph13.4 kmh 30.12 in1020.0 mb 0.00 in0.0 mm 0.00 in/hr0.0 mm/hr 0.00 in0.0 mm
12:58 PM 90.7°F32.6°C 42.5°F5.8°C 19% 7.4 mph SW11.9 kmh SW 8.3 mph13.4 kmh 30.13 in1020.3 mb 0.00 in0.0 mm 0.00 in/hr0.0 mm/hr 0.00 in0.0 mm
12:53 PM 90.2°F32.3°C 40.3°F4.6°C 18% 1.4 mph SW2.3 kmh SW 4.5 mph7.2 kmh 30.13 in1020.3 mb 0.00 in0.0 mm 0.00 in/hr0.0 mm/hr 0.00 in0.0 mm
12:48 PM 90.0°F32.2°C 40.1°F4.5°C 18% 2.3 mph NE3.7 kmh NE 4.5 mph7.2 kmh 30.13 in1020.3 mb 0.00 in0.0 mm 0.00 in/hr0.0 mm/hr 0.00 in0.0 mm
12:43 PM 89.8°F32.1°C 44.7°F7.1°C 21% 3.6 mph E5.8 kmh E 4.3 mph6.9 kmh 30.13 in1020.3 mb 0.00 in0.0 mm 0.00 in/hr0.0 mm/hr 0.00 in0.0 mm
12:38 PM 89.5°F31.9°C 44.3°F6.8°C 21% 3.3 mph E5.3 kmh E 4.0 mph6.4 kmh 30.14 in1020.7 mb 0.00 in0.0 mm 0.00 in/hr0.0 mm/hr 0.00 in0.0 mm
12:33 PM 88.9°F31.6°C 44.9°F7.2°C 22% 1.3 mph SE2.1 kmh SE 5.8 mph9.3 kmh 30.14 in1020.7 mb 0.00 in0.0 mm 0.00 in/hr0.0 mm/hr 0.00 in0.0 mm
12:28 PM 88.2°F31.2°C 43.3°F6.3°C 21% 4.0 mph SE6.4 kmh SE 5.8 mph9.3 kmh 30.14 in1020.7 mb 0.00 in0.0 mm 0.00 in/hr0.0 mm/hr 0.00 in0.0 mm
12:23 PM 87.8°F31.0°C 44.1°F6.7°C 22% 1.8 mph E2.9 kmh E 3.8 mph6.1 kmh 30.14 in1020.7 mb 0.00 in0.0 mm 0.00 in/hr0.0 mm/hr 0.00 in0.0 mm
12:18 PM 86.9°F30.5°C 42.2°F5.7°C 21% 0.4 mph ENE0.6 kmh ENE 6.0 mph9.7 kmh 30.14 in1020.7 mb 0.00 in0.0 mm 0.00 in/hr0.0 mm/hr 0.00 in0.0 mm
12:13 PM 86.4°F30.2°C 41.8°F5.4°C 21% 4.6 mph E7.4 kmh E 6.0 mph9.7 kmh 30.14 in1020.7 mb 0.00 in0.0 mm 0.00 in/hr0.0 mm/hr 0.00 in0.0 mm
12:08 PM 86.0°F30.0°C 42.5°F5.8°C 22% 3.3 mph ESE5.3 kmh ESE 8.1 mph13.0 kmh 30.14 in1020.7 mb 0.00 in0.0 mm 0.00 in/hr0.0 mm/hr 0.00 in0.0 mm
12:03 PM 86.6°F30.3°C 39.1°F3.9°C 19% 7.0 mph NE11.3 kmh NE 8.1 mph13.0 kmh 30.14 in1020.7 mb 0.00 in0.0 mm 0.00 in/hr0.0 mm/hr 0.00 in0.0 mm
11:58 AM 87.1°F30.6°C 44.5°F6.9°C 23% 4.2 mph ENE6.8 kmh ENE 5.8 mph9.3 kmh 30.15 in1021.0 mb 0.00 in0.0 mm 0.00 in/hr0.0 mm/hr 0.00 in0.0 mm
11:53 AM 86.8°F30.4°C 44.2°F6.8°C 23% 4.3 mph E6.9 kmh E 7.2 mph11.6 kmh 30.15 in1021.0 mb 0.00 in0.0 mm 0.00 in/hr0.0 mm/hr 0.00 in0.0 mm
11:48 AM 86.4°F30.2°C 46.0°F7.8°C 25% 5.5 mph ESE8.9 kmh ESE 7.2 mph11.6 kmh 30.15 in1021.0 mb 0.00 in0.0 mm 0.00 in/hr0.0 mm/hr 0.00 in0.0 mm
11:43 AM 85.9°F29.9°C 44.5°F6.9°C 24% 4.2 mph SE6.8 kmh SE 5.4 mph8.7 kmh 30.15 in1021.0 mb 0.00 in0.0 mm 0.00 in/hr0.0 mm/hr 0.00 in0.0 mm
11:38 AM 85.7°F29.8°C 44.4°F6.9°C 24% 5.3 mph SE8.5 kmh SE 5.6 mph9.0 kmh 30.15 in1021.0 mb 0.00 in0.0 mm 0.00 in/hr0.0 mm/hr 0.00 in0.0 mm
11:33 AM 85.7°F29.8°C 45.5°F7.5°C 25% 5.1 mph ESE8.2 kmh ESE 5.6 mph9.0 kmh 30.14 in1020.7 mb 0.00 in0.0 mm 0.00 in/hr0.0 mm/hr 0.00 in0.0 mm
11:28 AM 85.5°F29.7°C 46.4°F8.0°C 26% 1.7 mph S2.7 kmh S 5.1 mph8.2 kmh 30.15 in1021.0 mb 0.00 in0.0 mm 0.00 in/hr0.0 mm/hr 0.00 in0.0 mm
11:23 AM 85.0°F29.4°C 44.8°F7.1°C 25% 3.9 mph SE6.3 kmh SE 5.1 mph8.2 kmh 30.15 in1021.0 mb 0.00 in0.0 mm 0.00 in/hr0.0 mm/hr 0.00 in0.0 mm
11:18 AM 84.2°F29.0°C 45.3°F7.4°C 26% 2.3 mph SE3.7 kmh SE 4.7 mph7.6 kmh 30.15 in1021.0 mb 0.00 in0.0 mm 0.00 in/hr0.0 mm/hr 0.00 in0.0 mm
11:13 AM 83.3°F28.5°C 44.5°F6.9°C 26% 1.9 mph ESE3.1 kmh ESE 4.7 mph7.6 kmh 30.14 in1020.7 mb 0.00 in0.0 mm 0.00 in/hr0.0 mm/hr 0.00 in0.0 mm
11:08 AM 82.6°F28.1°C 43.8°F6.6°C 26% 1.4 mph E2.3 kmh E 3.8 mph6.1 kmh 30.15 in1021.0 mb 0.00 in0.0 mm 0.00 in/hr0.0 mm/hr 0.00 in0.0 mm
11:03 AM 81.9°F27.7°C 46.5°F8.1°C 29% 1.3 mph SE2.1 kmh SE 4.0 mph6.4 kmh 30.15 in1021.0 mb 0.00 in0.0 mm 0.00 in/hr0.0 mm/hr 0.00 in0.0 mm
10:57 AM 80.6°F27.0°C 44.4°F6.9°C 28% 1.5 mph SE2.4 kmh SE 4.0 mph6.4 kmh 30.15 in1021.0 mb 0.00 in0.0 mm 0.00 in/hr0.0 mm/hr 0.00 in0.0 mm
10:52 AM 79.9°F26.6°C 43.8°F6.6°C 28% 2.3 mph SW3.7 kmh SW 2.9 mph4.7 kmh 30.15 in1021.0 mb 0.00 in0.0 mm 0.00 in/hr0.0 mm/hr 0.00 in0.0 mm
10:47 AM 79.6°F26.4°C 45.5°F7.5°C 30% 0.3 mph SSE0.5 kmh SSE 3.4 mph5.5 kmh 30.15 in1021.0 mb 0.00 in0.0 mm 0.00 in/hr0.0 mm/hr 0.00 in0.0 mm
10:42 AM 78.5°F25.8°C 45.3°F7.4°C 31% 1.9 mph SSE3.1 kmh SSE 3.4 mph5.5 kmh 30.15 in1021.0 mb 0.00 in0.0 mm 0.00 in/hr0.0 mm/hr 0.00 in0.0 mm
10:37 AM 77.6°F25.3°C 43.8°F6.6°C 30% 1.6 mph SSE2.6 kmh SSE 1.6 mph2.6 kmh 30.15 in1021.0 mb 0.00 in0.0 mm 0.00 in/hr0.0 mm/hr 0.00 in0.0 mm
10:32 AM 76.7°F24.8°C 43.0°F6.1°C 30% 0.7 mph WSW1.1 kmh WSW 2.5 mph4.0 kmh 30.15 in1021.0 mb 0.00 in0.0 mm 0.00 in/hr0.0 mm/hr 0.00 in0.0 mm
10:28 AM 76.1°F24.5°C 43.3°F6.3°C 31% 1.5 mph SW2.4 kmh SW 2.5 mph4.0 kmh 30.15 in1021.0 mb 0.00 in0.0 mm 0.00 in/hr0.0 mm/hr 0.00 in0.0 mm
10:23 AM 75.6°F24.2°C 43.6°F6.4°C 32% 0.8 mph SE1.3 kmh SE 1.6 mph2.6 kmh 30.15 in1021.0 mb 0.00 in0.0 mm 0.00 in/hr0.0 mm/hr 0.00 in0.0 mm
10:18 AM 74.5°F23.6°C 42.7°F5.9°C 32% 1.1 mph SE1.8 kmh SE 1.8 mph2.9 kmh 30.15 in1021.0 mb 0.00 in0.0 mm 0.00 in/hr0.0 mm/hr 0.00 in0.0 mm
10:13 AM 73.6°F23.1°C 42.6°F5.9°C 33% 1.5 mph SE2.4 kmh SE 1.8 mph2.9 kmh 30.15 in1021.0 mb 0.00 in0.0 mm 0.00 in/hr0.0 mm/hr 0.00 in0.0 mm
10:08 AM 72.9°F22.7°C 41.9°F5.5°C 33% Calm Calm 3.8 mph6.1 kmh 30.15 in1021.0 mb 0.00 in0.0 mm 0.00 in/hr0.0 mm/hr 0.00 in0.0 mm
10:03 AM 72.2°F22.3°C 42.8°F6.0°C 35% 2.3 mph SW3.7 kmh SW 3.8 mph6.1 kmh 30.16 in1021.3 mb 0.00 in0.0 mm 0.00 in/hr0.0 mm/hr 0.00 in0.0 mm
09:57 AM 71.5°F21.9°C 42.2°F5.7°C 35% 1.8 mph SE2.9 kmh SE 3.1 mph5.0 kmh 30.15 in1021.0 mb 0.00 in0.0 mm 0.00 in/hr0.0 mm/hr 0.00 in0.0 mm
09:52 AM 70.7°F21.5°C 41.6°F5.3°C 35% 2.2 mph SE3.5 kmh SE 3.1 mph5.0 kmh 30.15 in1021.0 mb 0.00 in0.0 mm 0.00 in/hr0.0 mm/hr 0.00 in0.0 mm
09:47 AM 69.8°F21.0°C 40.1°F4.5°C 34% 1.3 mph E2.1 kmh E 1.6 mph2.6 kmh 30.15 in1021.0 mb 0.00 in0.0 mm 0.00 in/hr0.0 mm/hr 0.00 in0.0 mm
09:42 AM 69.1°F20.6°C 40.9°F4.9°C 36% 1.1 mph SE1.8 kmh SE 1.6 mph2.6 kmh 30.15 in1021.0 mb 0.00 in0.0 mm 0.00 in/hr0.0 mm/hr 0.00 in0.0 mm
09:37 AM 68.2°F20.1°C 39.3°F4.1°C 35% Calm Calm 3.4 mph5.5 kmh 30.16 in1021.3 mb 0.00 in0.0 mm 0.00 in/hr0.0 mm/hr 0.00 in0.0 mm
09:32 AM 67.5°F19.7°C 40.1°F4.5°C 37% 0.4 mph SE0.6 kmh SE 3.4 mph5.5 kmh 30.16 in1021.3 mb 0.00 in0.0 mm 0.00 in/hr0.0 mm/hr 0.00 in0.0 mm
09:27 AM 66.6°F19.2°C 37.9°F3.3°C 35% 0.2 mph N0.3 kmh N 1.8 mph2.9 kmh 30.15 in1021.0 mb 0.00 in0.0 mm 0.00 in/hr0.0 mm/hr 0.00 in0.0 mm
09:22 AM 65.9°F18.8°C 38.0°F3.3°C 36% 1.1 mph SSE1.8 kmh SSE 1.8 mph2.9 kmh 30.15 in1021.0 mb 0.00 in0.0 mm 0.00 in/hr0.0 mm/hr 0.00 in0.0 mm
09:17 AM 65.0°F18.3°C 37.2°F2.9°C 36% 0.6 mph E1.0 kmh E 1.3 mph2.1 kmh 30.16 in1021.3 mb 0.00 in0.0 mm 0.00 in/hr0.0 mm/hr 0.00 in0.0 mm
09:12 AM 64.3°F17.9°C 36.5°F2.5°C 36% 0.7 mph 1.1 kmh 1.1 mph1.8 kmh 30.16 in1021.3 mb 0.00 in0.0 mm 0.00 in/hr0.0 mm/hr 0.00 in0.0 mm
09:07 AM 63.5°F17.5°C 36.6°F2.6°C 37% 0.8 mph ENE1.3 kmh ENE 0.9 mph1.4 kmh 30.16 in1021.3 mb 0.00 in0.0 mm 0.00 in/hr0.0 mm/hr 0.00 in0.0 mm
09:03 AM 62.8°F17.1°C 36.0°F2.2°C 37% 0.8 mph NNE1.3 kmh NNE 2.2 mph3.5 kmh 30.16 in1021.3 mb 0.00 in0.0 mm 0.00 in/hr0.0 mm/hr 0.00 in0.0 mm
08:57 AM 61.6°F16.4°C 35.6°F2.0°C 38% 0.4 mph ENE0.6 kmh ENE 2.2 mph3.5 kmh 30.16 in1021.3 mb 0.00 in0.0 mm 0.00 in/hr0.0 mm/hr 0.00 in0.0 mm
08:52 AM 60.5°F15.8°C 35.3°F1.8°C 39% 0.8 mph N1.3 kmh N 1.1 mph1.8 kmh 30.16 in1021.3 mb 0.00 in0.0 mm 0.00 in/hr0.0 mm/hr 0.00 in0.0 mm
08:47 AM 59.4°F15.2°C 34.4°F1.3°C 39% Calm Calm 0.4 mph0.6 kmh 30.16 in1021.3 mb 0.00 in0.0 mm 0.00 in/hr0.0 mm/hr 0.00 in0.0 mm
08:42 AM 58.7°F14.8°C 34.4°F1.3°C 40% 0.4 mph 0.6 kmh 1.3 mph2.1 kmh 30.16 in1021.3 mb 0.00 in0.0 mm 0.00 in/hr0.0 mm/hr 0.00 in0.0 mm
08:37 AM 58.0°F14.4°C 34.4°F1.3°C 41% 0.9 mph 1.4 kmh 1.3 mph2.1 kmh 30.16 in1021.3 mb 0.00 in0.0 mm 0.00 in/hr0.0 mm/hr 0.00 in0.0 mm
08:32 AM 57.2°F14.0°C 34.3°F1.3°C 42% 0.7 mph N1.1 kmh N 1.1 mph1.8 kmh 30.16 in1021.3 mb 0.00 in0.0 mm 0.00 in/hr0.0 mm/hr 0.00 in0.0 mm
08:27 AM 56.5°F13.6°C 34.2°F1.2°C 43% 0.8 mph 1.3 kmh 1.8 mph2.9 kmh 30.16 in1021.3 mb 0.00 in0.0 mm 0.00 in/hr0.0 mm/hr 0.00 in0.0 mm
08:22 AM 55.4°F13.0°C 33.8°F1.0°C 44% 0.7 mph NNE1.1 kmh NNE 6.0 mph9.7 kmh 30.16 in1021.3 mb 0.00 in0.0 mm 0.00 in/hr0.0 mm/hr 0.00 in0.0 mm
08:17 AM 54.5°F12.5°C 33.5°F0.8°C 45% 2.5 mph E4.0 kmh E 6.0 mph9.7 kmh 30.16 in1021.3 mb 0.00 in0.0 mm 0.00 in/hr0.0 mm/hr 0.00 in0.0 mm
08:12 AM 53.5°F11.9°C 33.0°F0.6°C 46% 2.5 mph ENE4.0 kmh ENE 3.1 mph5.0 kmh 30.16 in1021.3 mb 0.00 in0.0 mm 0.00 in/hr0.0 mm/hr 0.00 in0.0 mm
08:07 AM 52.4°F11.3°C 32.1°F0.1°C 46% 2.0 mph E3.2 kmh E 5.1 mph8.2 kmh 30.16 in1021.3 mb 0.00 in0.0 mm 0.00 in/hr0.0 mm/hr 0.00 in0.0 mm
08:02 AM 51.3°F10.7°C 31.7°F-0.2°C 47% 2.9 mph E4.7 kmh E 6.3 mph10.1 kmh 30.16 in1021.3 mb 0.00 in0.0 mm 0.00 in/hr0.0 mm/hr 0.00 in0.0 mm
07:57 AM 50.6°F10.3°C 31.1°F-0.5°C 47% 5.0 mph ENE8.0 kmh ENE 6.5 mph10.5 kmh 30.16 in1021.3 mb 0.00 in0.0 mm 0.00 in/hr0.0 mm/hr 0.00 in0.0 mm
07:52 AM 49.9°F9.9°C 31.0°F-0.6°C 48% 5.7 mph E9.2 kmh E 6.7 mph10.8 kmh 30.16 in1021.3 mb 0.00 in0.0 mm 0.00 in/hr0.0 mm/hr 0.00 in0.0 mm
07:47 AM 49.3°F9.6°C 31.0°F-0.6°C 49% 6.3 mph E10.1 kmh E 6.7 mph10.8 kmh 30.16 in1021.3 mb 0.00 in0.0 mm 0.00 in/hr0.0 mm/hr 0.00 in0.0 mm
07:42 AM 48.6°F9.2°C 30.3°F-0.9°C 49% 3.7 mph E6.0 kmh E 4.9 mph7.9 kmh 30.16 in1021.3 mb 0.00 in0.0 mm 0.00 in/hr0.0 mm/hr 0.00 in0.0 mm
07:37 AM 48.1°F8.9°C 30.2°F-1.0°C 50% 3.5 mph ESE5.6 kmh ESE 4.7 mph7.6 kmh 30.16 in1021.3 mb 0.00 in0.0 mm 0.00 in/hr0.0 mm/hr 0.00 in0.0 mm
07:32 AM 47.3°F8.5°C 30.1°F-1.1°C 51% 2.5 mph E4.0 kmh E 2.9 mph4.7 kmh 30.16 in1021.3 mb 0.00 in0.0 mm 0.00 in/hr0.0 mm/hr 0.00 in0.0 mm
07:27 AM 46.8°F8.2°C 29.6°F-1.3°C 51% 0.6 mph E1.0 kmh E 2.0 mph3.2 kmh 30.16 in1021.3 mb 0.00 in0.0 mm 0.00 in/hr0.0 mm/hr 0.00 in0.0 mm
07:22 AM 46.3°F7.9°C 28.6°F-1.9°C 50% 0.3 mph E0.5 kmh E 2.2 mph3.5 kmh 30.15 in1021.0 mb 0.00 in0.0 mm 0.00 in/hr0.0 mm/hr 0.00 in0.0 mm
07:17 AM 45.7°F7.6°C 28.2°F-2.1°C 50% 0.9 mph ESE1.4 kmh ESE 2.2 mph3.5 kmh 30.15 in1021.0 mb 0.00 in0.0 mm 0.00 in/hr0.0 mm/hr 0.00 in0.0 mm
07:12 AM 45.5°F7.5°C 27.5°F-2.5°C 49% 1.6 mph E2.6 kmh E 1.8 mph2.9 kmh 30.15 in1021.0 mb 0.00 in0.0 mm 0.00 in/hr0.0 mm/hr 0.00 in0.0 mm
07:07 AM 45.4°F7.4°C 26.7°F-2.9°C 48% 0.4 mph SE0.6 kmh SE 0.4 mph0.6 kmh 30.15 in1021.0 mb 0.00 in0.0 mm 0.00 in/hr0.0 mm/hr 0.00 in0.0 mm
07:02 AM 45.4°F7.4°C 26.7°F-2.9°C 48% Calm Calm 3.1 mph5.0 kmh 30.15 in1021.0 mb 0.00 in0.0 mm 0.00 in/hr0.0 mm/hr 0.00 in0.0 mm
06:57 AM 45.5°F7.5°C 27.5°F-2.5°C 49% 0.3 mph SW0.5 kmh SW 3.1 mph5.0 kmh 30.15 in1021.0 mb 0.00 in0.0 mm 0.00 in/hr0.0 mm/hr 0.00 in0.0 mm
06:52 AM 45.4°F7.4°C 27.3°F-2.6°C 49% 1.6 mph WSW2.6 kmh WSW 4.7 mph7.6 kmh 30.15 in1021.0 mb 0.00 in0.0 mm 0.00 in/hr0.0 mm/hr 0.00 in0.0 mm
06:47 AM 44.5°F6.9°C 27.0°F-2.8°C 50% 4.3 mph NE6.9 kmh NE 6.3 mph10.1 kmh 30.15 in1021.0 mb 0.00 in0.0 mm 0.00 in/hr0.0 mm/hr 0.00 in0.0 mm
06:42 AM 44.3°F6.8°C 26.3°F-3.2°C 49% 3.7 mph NE6.0 kmh NE 6.3 mph10.1 kmh 30.15 in1021.0 mb 0.00 in0.0 mm 0.00 in/hr0.0 mm/hr 0.00 in0.0 mm
06:37 AM 44.3°F6.8°C 25.7°F-3.5°C 48% 5.1 mph 8.2 kmh 5.6 mph9.0 kmh 30.15 in1021.0 mb 0.00 in0.0 mm 0.00 in/hr0.0 mm/hr 0.00 in0.0 mm
06:32 AM 44.3°F6.8°C 26.3°F-3.2°C 49% 0.2 mph NNE0.3 kmh NNE 4.0 mph6.4 kmh 30.15 in1021.0 mb 0.00 in0.0 mm 0.00 in/hr0.0 mm/hr 0.00 in0.0 mm
06:27 AM 44.1°F6.7°C 26.2°F-3.2°C 49% 3.8 mph NE6.1 kmh NE 4.0 mph6.4 kmh 30.15 in1021.0 mb 0.00 in0.0 mm 0.00 in/hr0.0 mm/hr 0.00 in0.0 mm
06:22 AM 43.6°F6.4°C 25.7°F-3.5°C 49% 1.0 mph E1.6 kmh E 1.1 mph1.8 kmh 30.15 in1021.0 mb 0.00 in0.0 mm 0.00 in/hr0.0 mm/hr 0.00 in0.0 mm
06:17 AM 43.7°F6.5°C 25.8°F-3.4°C 49% Calm Calm 0.9 mph1.4 kmh 30.15 in1021.0 mb 0.00 in0.0 mm 0.00 in/hr0.0 mm/hr 0.00 in0.0 mm
06:12 AM 43.7°F6.5°C 25.8°F-3.4°C 49% 0.8 mph ESE1.3 kmh ESE 0.9 mph1.4 kmh 30.14 in1020.7 mb 0.00 in0.0 mm 0.00 in/hr0.0 mm/hr 0.00 in0.0 mm
06:07 AM 43.9°F6.6°C 25.5°F-3.6°C 48% Calm Calm -- 30.14 in1020.7 mb 0.00 in0.0 mm 0.00 in/hr0.0 mm/hr 0.00 in0.0 mm
06:02 AM 44.1°F6.7°C 25.7°F-3.5°C 48% Calm Calm 0.4 mph0.6 kmh 30.14 in1020.7 mb 0.00 in0.0 mm 0.00 in/hr0.0 mm/hr 0.00 in0.0 mm
05:56 AM 44.3°F6.8°C 25.7°F-3.5°C 48% 0.4 mph ESE0.6 kmh ESE 0.9 mph1.4 kmh 30.14 in1020.7 mb 0.00 in0.0 mm 0.00 in/hr0.0 mm/hr 0.00 in0.0 mm
05:51 AM 44.6°F7.0°C 26.1°F-3.3°C 48% 0.2 mph SE0.3 kmh SE 1.1 mph1.8 kmh 30.14 in1020.7 mb 0.00 in0.0 mm 0.00 in/hr0.0 mm/hr 0.00 in0.0 mm
05:46 AM 44.6°F7.0°C 25.6°F-3.6°C 47% 0.6 mph E1.0 kmh E 2.7 mph4.3 kmh 30.14 in1020.7 mb 0.00 in0.0 mm 0.00 in/hr0.0 mm/hr 0.00 in0.0 mm
05:41 AM 44.6°F7.0°C 25.6°F-3.6°C 47% 2.5 mph NE4.0 kmh NE 2.7 mph4.3 kmh 30.14 in1020.7 mb 0.00 in0.0 mm 0.00 in/hr0.0 mm/hr 0.00 in0.0 mm
05:36 AM 44.6°F7.0°C 25.6°F-3.6°C 47% 0.4 mph 0.6 kmh 0.7 mph1.1 kmh 30.14 in1020.7 mb 0.00 in0.0 mm 0.00 in/hr0.0 mm/hr 0.00 in0.0 mm
05:31 AM 44.6°F7.0°C 25.6°F-3.6°C 47% 0.2 mph 0.3 kmh 0.9 mph1.4 kmh 30.14 in1020.7 mb 0.00 in0.0 mm 0.00 in/hr0.0 mm/hr 0.00 in0.0 mm
05:27 AM 44.6°F7.0°C 25.0°F-3.9°C 46% 0.7 mph 1.1 kmh 0.9 mph1.4 kmh 30.13 in1020.3 mb 0.00 in0.0 mm 0.00 in/hr0.0 mm/hr 0.00 in0.0 mm
05:22 AM 44.6°F7.0°C 25.6°F-3.6°C 47% 0.2 mph W0.3 kmh W 1.8 mph2.9 kmh 30.14 in1020.7 mb 0.00 in0.0 mm 0.00 in/hr0.0 mm/hr 0.00 in0.0 mm
05:17 AM 44.6°F7.0°C 25.6°F-3.6°C 47% Calm Calm 2.5 mph4.0 kmh 30.14 in1020.7 mb 0.00 in0.0 mm 0.00 in/hr0.0 mm/hr 0.00 in0.0 mm
05:12 AM 44.6°F7.0°C 25.6°F-3.6°C 47% 1.1 mph 1.8 kmh 2.7 mph4.3 kmh 30.14 in1020.7 mb 0.00 in0.0 mm 0.00 in/hr0.0 mm/hr 0.00 in0.0 mm
05:07 AM 44.5°F6.9°C 24.8°F-4.0°C 46% 2.2 mph N3.5 kmh N 2.7 mph4.3 kmh 30.13 in1020.3 mb 0.00 in0.0 mm 0.00 in/hr0.0 mm/hr 0.00 in0.0 mm
05:02 AM 44.5°F6.9°C 25.4°F-3.7°C 47% Calm Calm 0.4 mph0.6 kmh 30.13 in1020.3 mb 0.00 in0.0 mm 0.00 in/hr0.0 mm/hr 0.00 in0.0 mm
04:56 AM 44.5°F6.9°C 25.4°F-3.7°C 47% Calm Calm 1.1 mph1.8 kmh 30.13 in1020.3 mb 0.00 in0.0 mm 0.00 in/hr0.0 mm/hr 0.00 in0.0 mm
04:51 AM 44.5°F6.9°C 24.8°F-4.0°C 46% 0.6 mph NNE1.0 kmh NNE 2.5 mph4.0 kmh 30.13 in1020.3 mb 0.00 in0.0 mm 0.00 in/hr0.0 mm/hr 0.00 in0.0 mm
04:46 AM 44.5°F6.9°C 24.8°F-4.0°C 46% 1.5 mph 2.4 kmh 2.5 mph4.0 kmh 30.13 in1020.3 mb 0.00 in0.0 mm 0.00 in/hr0.0 mm/hr 0.00 in0.0 mm
04:41 AM 44.8°F7.1°C 25.2°F-3.8°C 46% 1.5 mph 2.4 kmh 5.6 mph9.0 kmh 30.13 in1020.3 mb 0.00 in0.0 mm 0.00 in/hr0.0 mm/hr 0.00 in0.0 mm
04:36 AM 44.8°F7.1°C 26.3°F-3.2°C 48% 2.3 mph ENE3.7 kmh ENE 6.3 mph10.1 kmh 30.12 in1020.0 mb 0.00 in0.0 mm 0.00 in/hr0.0 mm/hr 0.00 in0.0 mm
04:31 AM 45.0°F7.2°C 26.5°F-3.1°C 48% 5.9 mph E9.5 kmh E 6.3 mph10.1 kmh 30.12 in1020.0 mb 0.00 in0.0 mm 0.00 in/hr0.0 mm/hr 0.00 in0.0 mm
04:26 AM 45.0°F7.2°C 25.9°F-3.4°C 47% 3.2 mph NE5.1 kmh NE 5.1 mph8.2 kmh 30.12 in1020.0 mb 0.00 in0.0 mm 0.00 in/hr0.0 mm/hr 0.00 in0.0 mm
04:21 AM 45.0°F7.2°C 27.0°F-2.8°C 49% 4.0 mph ENE6.4 kmh ENE 5.1 mph8.2 kmh 30.12 in1020.0 mb 0.00 in0.0 mm 0.00 in/hr0.0 mm/hr 0.00 in0.0 mm
04:16 AM 44.8°F7.1°C 25.8°F-3.4°C 47% 3.4 mph NE5.5 kmh NE 4.5 mph7.2 kmh 30.12 in1020.0 mb 0.00 in0.0 mm 0.00 in/hr0.0 mm/hr 0.00 in0.0 mm
04:11 AM 45.0°F7.2°C 25.9°F-3.4°C 47% 0.9 mph N1.4 kmh N 4.7 mph7.6 kmh 30.12 in1020.0 mb 0.00 in0.0 mm 0.00 in/hr0.0 mm/hr 0.00 in0.0 mm
04:06 AM 44.8°F7.1°C 25.8°F-3.4°C 47% 4.6 mph E7.4 kmh E 4.7 mph7.6 kmh 30.12 in1020.0 mb 0.00 in0.0 mm 0.00 in/hr0.0 mm/hr 0.00 in0.0 mm
04:01 AM 44.8°F7.1°C 24.7°F-4.1°C 45% 1.7 mph NNE2.7 kmh NNE 2.5 mph4.0 kmh 30.12 in1020.0 mb 0.00 in0.0 mm 0.00 in/hr0.0 mm/hr 0.00 in0.0 mm
03:56 AM 45.0°F7.2°C 24.3°F-4.3°C 44% 1.9 mph NNE3.1 kmh NNE 2.5 mph4.0 kmh 30.12 in1020.0 mb 0.00 in0.0 mm 0.00 in/hr0.0 mm/hr 0.00 in0.0 mm
03:51 AM 45.2°F7.3°C 24.4°F-4.2°C 44% 0.4 mph NE0.6 kmh NE 2.9 mph4.7 kmh 30.12 in1020.0 mb 0.00 in0.0 mm 0.00 in/hr0.0 mm/hr 0.00 in0.0 mm
03:46 AM 45.4°F7.4°C 25.1°F-3.8°C 45% 1.5 mph E2.4 kmh E 2.9 mph4.7 kmh 30.12 in1020.0 mb 0.00 in0.0 mm 0.00 in/hr0.0 mm/hr 0.00 in0.0 mm
03:41 AM 45.2°F7.3°C 24.4°F-4.2°C 44% 2.3 mph ENE3.7 kmh ENE 2.7 mph4.3 kmh 30.11 in1019.6 mb 0.00 in0.0 mm 0.00 in/hr0.0 mm/hr 0.00 in0.0 mm
03:36 AM 45.2°F7.3°C 23.3°F-4.8°C 42% 1.0 mph NE1.6 kmh NE 1.8 mph2.9 kmh 30.11 in1019.6 mb 0.00 in0.0 mm 0.00 in/hr0.0 mm/hr 0.00 in0.0 mm
03:31 AM 45.5°F7.5°C 24.2°F-4.3°C 43% 0.2 mph 0.3 kmh 3.1 mph5.0 kmh 30.11 in1019.6 mb 0.00 in0.0 mm 0.00 in/hr0.0 mm/hr 0.00 in0.0 mm
03:26 AM 45.9°F7.7°C 24.6°F-4.1°C 43% 0.3 mph N0.5 kmh N 3.8 mph6.1 kmh 30.11 in1019.6 mb 0.00 in0.0 mm 0.00 in/hr0.0 mm/hr 0.00 in0.0 mm
03:21 AM 46.4°F8.0°C 25.0°F-3.9°C 43% 3.3 mph ENE5.3 kmh ENE 3.8 mph6.1 kmh 30.11 in1019.6 mb 0.00 in0.0 mm 0.00 in/hr0.0 mm/hr 0.00 in0.0 mm
03:16 AM 46.8°F8.2°C 25.4°F-3.7°C 43% 0.8 mph E1.3 kmh E 1.8 mph2.9 kmh 30.11 in1019.6 mb 0.00 in0.0 mm 0.00 in/hr0.0 mm/hr 0.00 in0.0 mm
03:11 AM 47.0°F8.3°C 25.5°F-3.6°C 43% 1.3 mph ESE2.1 kmh ESE 1.8 mph2.9 kmh 30.11 in1019.6 mb 0.00 in0.0 mm 0.00 in/hr0.0 mm/hr 0.00 in0.0 mm
03:06 AM 46.8°F8.2°C 24.9°F-3.9°C 42% 1.7 mph NNE2.7 kmh NNE 2.0 mph3.2 kmh 30.11 in1019.6 mb 0.00 in0.0 mm 0.00 in/hr0.0 mm/hr 0.00 in0.0 mm
03:01 AM 47.0°F8.3°C 24.9°F-3.9°C 42% 1.1 mph 1.8 kmh 2.2 mph3.5 kmh 30.11 in1019.6 mb 0.00 in0.0 mm 0.00 in/hr0.0 mm/hr 0.00 in0.0 mm
02:56 AM 46.8°F8.2°C 24.9°F-3.9°C 42% 2.1 mph NNE3.4 kmh NNE 2.2 mph3.5 kmh 30.11 in1019.6 mb 0.00 in0.0 mm 0.00 in/hr0.0 mm/hr 0.00 in0.0 mm
02:51 AM 47.0°F8.3°C 23.9°F-4.5°C 40% 1.0 mph N1.6 kmh N 1.3 mph2.1 kmh 30.11 in1019.6 mb 0.00 in0.0 mm 0.00 in/hr0.0 mm/hr 0.00 in0.0 mm
02:46 AM 47.2°F8.4°C 25.1°F-3.8°C 42% 0.4 mph 0.6 kmh 0.9 mph1.4 kmh 30.11 in1019.6 mb 0.00 in0.0 mm 0.00 in/hr0.0 mm/hr 0.00 in0.0 mm
02:41 AM 47.2°F8.4°C 24.0°F-4.4°C 40% 0.8 mph NNE1.3 kmh NNE 0.9 mph1.4 kmh 30.11 in1019.6 mb 0.00 in0.0 mm 0.00 in/hr0.0 mm/hr 0.00 in0.0 mm
02:36 AM 47.2°F8.4°C 24.6°F-4.1°C 41% Calm Calm 0.7 mph1.1 kmh 30.11 in1019.6 mb 0.00 in0.0 mm 0.00 in/hr0.0 mm/hr 0.00 in0.0 mm
02:31 AM 47.3°F8.5°C 24.2°F-4.3°C 40% Calm Calm 1.3 mph2.1 kmh 30.11 in1019.6 mb 0.00 in0.0 mm 0.00 in/hr0.0 mm/hr 0.00 in0.0 mm
02:26 AM 47.7°F8.7°C 23.9°F-4.5°C 39% 1.3 mph NNW2.1 kmh NNW 1.3 mph2.1 kmh 30.11 in1019.6 mb 0.00 in0.0 mm 0.00 in/hr0.0 mm/hr 0.00 in0.0 mm
02:21 AM 48.1°F8.9°C 24.2°F-4.3°C 39% 0.3 mph SE0.5 kmh SE 0.4 mph0.6 kmh 30.11 in1019.6 mb 0.00 in0.0 mm 0.00 in/hr0.0 mm/hr 0.00 in0.0 mm
02:16 AM 48.2°F9.0°C 24.4°F-4.2°C 39% Calm Calm 1.8 mph2.9 kmh 30.11 in1019.6 mb 0.00 in0.0 mm 0.00 in/hr0.0 mm/hr 0.00 in0.0 mm
02:11 AM 48.6°F9.2°C 24.7°F-4.1°C 39% 0.7 mph W1.1 kmh W 4.5 mph7.2 kmh 30.11 in1019.6 mb 0.00 in0.0 mm 0.00 in/hr0.0 mm/hr 0.00 in0.0 mm
02:06 AM 48.6°F9.2°C 24.7°F-4.1°C 39% 1.5 mph NNE2.4 kmh NNE 4.5 mph7.2 kmh 30.11 in1019.6 mb 0.00 in0.0 mm 0.00 in/hr0.0 mm/hr 0.00 in0.0 mm
02:01 AM 48.8°F9.3°C 25.5°F-3.6°C 40% 4.0 mph ENE6.4 kmh ENE 4.3 mph6.9 kmh 30.10 in1019.3 mb 0.00 in0.0 mm 0.00 in/hr0.0 mm/hr 0.00 in0.0 mm
01:55 AM 48.8°F9.3°C 24.9°F-3.9°C 39% 1.5 mph E2.4 kmh E 2.5 mph4.0 kmh 30.11 in1019.6 mb 0.00 in0.0 mm 0.00 in/hr0.0 mm/hr 0.00 in0.0 mm
01:50 AM 48.8°F9.3°C 24.1°F-4.4°C 38% 1.2 mph N1.9 kmh N 2.7 mph4.3 kmh 30.10 in1019.3 mb 0.00 in0.0 mm 0.00 in/hr0.0 mm/hr 0.00 in0.0 mm
01:45 AM 48.6°F9.2°C 24.0°F-4.4°C 38% 2.7 mph 4.3 kmh 2.7 mph4.3 kmh 30.10 in1019.3 mb 0.00 in0.0 mm 0.00 in/hr0.0 mm/hr 0.00 in0.0 mm
01:40 AM 49.0°F9.4°C 25.0°F-3.9°C 39% 1.8 mph N2.9 kmh N 4.0 mph6.4 kmh 30.10 in1019.3 mb 0.00 in0.0 mm 0.00 in/hr0.0 mm/hr 0.00 in0.0 mm
01:35 AM 49.7°F9.8°C 26.3°F-3.2°C 40% 1.3 mph E2.1 kmh E 4.7 mph7.6 kmh 30.10 in1019.3 mb 0.00 in0.0 mm 0.00 in/hr0.0 mm/hr 0.00 in0.0 mm
01:30 AM 50.0°F10.0°C 25.3°F-3.7°C 38% 2.6 mph E4.2 kmh E 4.7 mph7.6 kmh 30.10 in1019.3 mb 0.00 in0.0 mm 0.00 in/hr0.0 mm/hr 0.00 in0.0 mm
01:26 AM 50.2°F10.1°C 25.5°F-3.6°C 38% 4.2 mph E6.8 kmh E 4.7 mph7.6 kmh 30.10 in1019.3 mb 0.00 in0.0 mm 0.00 in/hr0.0 mm/hr 0.00 in0.0 mm
01:21 AM 50.4°F10.2°C 25.6°F-3.6°C 38% 2.2 mph NE3.5 kmh NE 4.7 mph7.6 kmh 30.10 in1019.3 mb 0.00 in0.0 mm 0.00 in/hr0.0 mm/hr 0.00 in0.0 mm
01:16 AM 50.4°F10.2°C 24.9°F-3.9°C 37% 3.5 mph NNE5.6 kmh NNE 3.6 mph5.8 kmh 30.10 in1019.3 mb 0.00 in0.0 mm 0.00 in/hr0.0 mm/hr 0.00 in0.0 mm
01:11 AM 50.4°F10.2°C 24.2°F-4.3°C 36% 2.6 mph 4.2 kmh 2.9 mph4.7 kmh 30.10 in1019.3 mb 0.00 in0.0 mm 0.00 in/hr0.0 mm/hr 0.00 in0.0 mm
01:06 AM 50.6°F10.3°C 24.4°F-4.2°C 36% 0.8 mph 1.3 kmh 2.5 mph4.0 kmh 30.10 in1019.3 mb 0.00 in0.0 mm 0.00 in/hr0.0 mm/hr 0.00 in0.0 mm
01:01 AM 50.8°F10.4°C 24.6°F-4.1°C 36% 1.1 mph 1.8 kmh 3.4 mph5.5 kmh 30.10 in1019.3 mb 0.00 in0.0 mm 0.00 in/hr0.0 mm/hr 0.00 in0.0 mm
12:55 AM 50.9°F10.5°C 25.4°F-3.7°C 37% 2.7 mph 4.3 kmh 3.6 mph5.8 kmh 30.09 in1019.0 mb 0.00 in0.0 mm 0.00 in/hr0.0 mm/hr 0.00 in0.0 mm
12:50 AM 50.8°F10.4°C 24.6°F-4.1°C 36% 3.2 mph N5.1 kmh N 3.6 mph5.8 kmh 30.09 in1019.0 mb 0.00 in0.0 mm 0.00 in/hr0.0 mm/hr 0.00 in0.0 mm
12:45 AM 50.8°F10.4°C 24.6°F-4.1°C 36% 2.3 mph NNE3.7 kmh NNE 4.0 mph6.4 kmh 30.09 in1019.0 mb 0.00 in0.0 mm 0.00 in/hr0.0 mm/hr 0.00 in0.0 mm
12:40 AM 50.9°F10.5°C 24.8°F-4.0°C 36% 3.4 mph NNE5.5 kmh NNE 5.1 mph8.2 kmh 30.09 in1019.0 mb 0.00 in0.0 mm 0.00 in/hr0.0 mm/hr 0.00 in0.0 mm
12:35 AM 51.3°F10.7°C 25.0°F-3.9°C 36% 4.3 mph N6.9 kmh N 5.1 mph8.2 kmh 30.09 in1019.0 mb 0.00 in0.0 mm 0.00 in/hr0.0 mm/hr 0.00 in0.0 mm
12:30 AM 51.5°F10.8°C 25.2°F-3.8°C 36% 0.6 mph NE1.0 kmh NE 1.3 mph2.1 kmh 30.09 in1019.0 mb 0.00 in0.0 mm 0.00 in/hr0.0 mm/hr 0.00 in0.0 mm
12:25 AM 51.7°F10.9°C 26.0°F-3.3°C 37% 0.4 mph N0.6 kmh N 1.6 mph2.6 kmh 30.09 in1019.0 mb 0.00 in0.0 mm 0.00 in/hr0.0 mm/hr 0.00 in0.0 mm
12:20 AM 52.2°F11.2°C 25.8°F-3.4°C 36% 1.3 mph ESE2.1 kmh ESE 1.6 mph2.6 kmh 30.09 in1019.0 mb 0.00 in0.0 mm 0.00 in/hr0.0 mm/hr 0.00 in0.0 mm
12:15 AM 52.6°F11.4°C 26.2°F-3.2°C 36% 0.2 mph E0.3 kmh E 1.3 mph2.1 kmh 30.09 in1019.0 mb 0.00 in0.0 mm 0.00 in/hr0.0 mm/hr 0.00 in0.0 mm
12:11 AM 52.4°F11.3°C 26.0°F-3.3°C 36% Calm Calm 1.3 mph2.1 kmh 30.09 in1019.0 mb 0.00 in0.0 mm 0.00 in/hr0.0 mm/hr 0.00 in0.0 mm
12:06 AM 52.4°F11.3°C 26.0°F-3.3°C 36% 1.3 mph E2.1 kmh E 2.2 mph3.5 kmh 30.09 in1019.0 mb 0.00 in0.0 mm 0.00 in/hr0.0 mm/hr 0.00 in0.0 mm
12:01 AM 52.6°F11.4°C 24.9°F-3.9°C 34% 1.6 mph E2.6 kmh E 2.5 mph4.0 kmh 30.09 in1019.0 mb 0.00 in0.0 mm 0.00 in/hr0.0 mm/hr 0.00 in0.0 mm